CheckWX is a tool to help pilots better visualize weather data.  It is not intended as a substitute for an official pre-flight weather briefing.

11:38:03 UTC

EHAK METAR
A12-cpp Sea
A12-cpp Sea, The Netherlands
Current

43 mins ago

EHAK 151055Z AUTO 19022KT 9999 FEW005/// SCT006/// BKN010/// 14/13 Q0999 W///H///
Observed
Oct-15 @ 10:55 UTC
Wind
  • 190° at 22 KTS
Visibility
10,000+ meters
Flight Rules
MVFR
Cloud Levels
  • Few at 500' AGL
  • Scattered at 600' AGL
  • Broken at 1,000' AGL
Temperature
14°C / 57°F
Dewpoint
13°C / 55°F
Humidity
94%
Altimeter
29.5" Hg
Pressure
998.92 hPa
Previous

1 hour ago

EHAK 151025Z AUTO 19020KT 9999 SCT005/// BKN007/// BKN008/// 14/14 Q0999 W///H///
Observed
Oct-15 @ 10:25 UTC
Wind
  • 190° at 20 KTS
Visibility
10,000+ meters
Flight Rules
IFR
Cloud Levels
  • Scattered at 500' AGL
  • Broken at 700' AGL
  • Broken at 800' AGL
Temperature
14°C / 57°F
Dewpoint
14°C / 57°F
Humidity
100%
Altimeter
29.5" Hg
Pressure
998.92 hPa
Previous

2 hours ago

EHAK 150955Z AUTO 18020KT 9999 SCT006/// BKN008/// OVC009/// 15/14 Q0999 W///H///
Observed
Oct-15 @ 09:55 UTC
Wind
  • 180° at 20 KTS
Visibility
10,000+ meters
Flight Rules
IFR
Cloud Levels
  • Scattered at 600' AGL
  • Broken at 800' AGL
  • Overcast at 900' AGL
Temperature
15°C / 59°F
Dewpoint
14°C / 57°F
Humidity
94%
Altimeter
29.5" Hg
Pressure
998.92 hPa